createdAt,value
2023-05-14T00:00:22.100Z,25.25
2023-05-14T00:01:25.382Z,25.25
2023-05-14T00:02:28.678Z,25.18
2023-05-14T00:03:31.963Z,25.25
2023-05-14T00:04:35.261Z,25.25
2023-05-14T00:05:38.546Z,25.25
2023-05-14T00:06:41.840Z,25.25
2023-05-14T00:07:45.134Z,25.25
2023-05-14T00:08:47.468Z,25.25
2023-05-14T00:09:50.750Z,25.18
2023-05-14T00:10:54.087Z,25.25
2023-05-14T00:11:57.322Z,25.18
2023-05-14T00:13:00.632Z,25.25
2023-05-14T00:14:03.918Z,25.18
2023-05-14T00:15:07.209Z,25.25
2023-05-14T00:16:10.489Z,25.18
2023-05-14T00:17:13.784Z,25.25
2023-05-14T00:18:17.091Z,25.25
2023-05-14T00:19:20.606Z,25.18
2023-05-14T00:20:23.665Z,25.25
2023-05-14T00:21:26.957Z,25.18
2023-05-14T00:22:29.250Z,25.25
2023-05-14T00:23:32.569Z,25.25
2023-05-14T00:24:35.849Z,25.18
2023-05-14T00:25:39.134Z,25.25
2023-05-14T00:26:42.423Z,25.18
2023-05-14T00:27:44.741Z,25.25
2023-05-14T00:28:48.050Z,25.18
2023-05-14T00:29:51.332Z,25.18
2023-05-14T00:30:54.609Z,25.25
2023-05-14T00:31:57.922Z,25.18
2023-05-14T00:33:01.208Z,25.18
2023-05-14T00:34:04.501Z,25.18
2023-05-14T00:35:07.780Z,25.18
2023-05-14T00:36:11.090Z,25.18
2023-05-14T00:37:14.379Z,25.18
2023-05-14T00:38:17.659Z,25.18
2023-05-14T00:39:20.953Z,25.25
2023-05-14T00:40:24.248Z,25.18
2023-05-14T00:42:29.848Z,25.18
2023-05-14T00:43:33.141Z,25.18
2023-05-14T00:44:36.425Z,25.18
2023-05-14T00:45:39.721Z,25.18
2023-05-14T00:46:43.020Z,25.12
2023-05-14T00:47:46.317Z,25.12
2023-05-14T00:48:49.589Z,25.18
2023-05-14T00:49:52.901Z,25.18
2023-05-14T00:50:56.182Z,25.18
2023-05-14T00:51:59.482Z,25.18
2023-05-14T00:53:02.812Z,25.18
2023-05-14T00:54:06.051Z,25.25
2023-05-14T00:55:08.364Z,25.18
2023-05-14T00:56:11.666Z,25.18
2023-05-14T00:57:14.967Z,25.18
2023-05-14T00:58:18.231Z,25.18
2023-05-14T00:59:21.553Z,25.18
2023-05-14T01:00:24.822Z,25.18
2023-05-14T01:01:28.129Z,25.12
2023-05-14T01:02:31.403Z,25.12
2023-05-14T01:03:34.715Z,25.18
2023-05-14T01:04:37.991Z,25.18
2023-05-14T01:05:41.304Z,25.12
2023-05-14T01:06:44.588Z,25.18
2023-05-14T01:07:47.865Z,25.18
2023-05-14T01:08:50.207Z,25.18
2023-05-14T01:09:53.474Z,25.18
2023-05-14T01:10:56.757Z,25.18
2023-05-14T01:12:00.068Z,25.12
2023-05-14T01:13:03.351Z,25.18
2023-05-14T01:14:06.628Z,25.12
2023-05-14T01:15:09.937Z,25.18
2023-05-14T01:16:13.228Z,25.12
2023-05-14T01:17:16.524Z,25.18
2023-05-14T01:18:19.806Z,25.18
2023-05-14T01:19:23.111Z,25.18
2023-05-14T01:20:26.397Z,25.18
2023-05-14T01:21:29.680Z,25.18
2023-05-14T01:22:31.995Z,25.18
2023-05-14T01:23:35.285Z,25.18
2023-05-14T01:24:38.573Z,25.18
2023-05-14T01:25:41.875Z,25.18
2023-05-14T01:26:45.144Z,25.18
2023-05-14T01:27:48.463Z,25.18
2023-05-14T01:28:51.748Z,25.25
2023-05-14T01:29:55.044Z,25.18
2023-05-14T01:30:58.379Z,25.12
2023-05-14T01:32:01.608Z,25.12
2023-05-14T01:33:04.903Z,25.12
2023-05-14T01:34:08.192Z,25.12
2023-05-14T01:35:11.495Z,25.12
2023-05-14T01:36:13.789Z,25.12
2023-05-14T01:37:17.092Z,25.12
2023-05-14T01:38:20.374Z,25.12
2023-05-14T01:39:23.670Z,25.12
2023-05-14T01:40:26.961Z,25.12
2023-05-14T01:41:30.260Z,25.12
2023-05-14T01:42:33.690Z,25.18
2023-05-14T01:43:36.834Z,25.12
2023-05-14T01:44:40.140Z,25.12
2023-05-14T01:45:43.409Z,25.18
2023-05-14T01:46:46.721Z,25.12
2023-05-14T01:47:50.013Z,25.12
2023-05-14T01:48:53.305Z,25.12
2023-05-14T01:49:55.610Z,25.12
2023-05-14T01:50:58.961Z,25.12
2023-05-14T01:52:02.185Z,25.12
2023-05-14T01:53:05.497Z,25.12
2023-05-14T01:54:08.770Z,25.12
2023-05-14T01:55:12.071Z,25.12
2023-05-14T01:56:15.361Z,25.12
2023-05-14T01:57:18.647Z,25.12
2023-05-14T01:58:21.972Z,25.12
2023-05-14T01:59:25.258Z,25.06
2023-05-14T02:00:28.534Z,25.12
2023-05-14T02:01:31.819Z,25.18
2023-05-14T02:02:35.133Z,25.12
2023-05-14T02:03:37.409Z,25.12
2023-05-14T02:04:40.712Z,25.12
2023-05-14T02:05:44.003Z,25.12
2023-05-14T02:07:50.584Z,25.12
2023-05-14T02:08:53.879Z,25.12
2023-05-14T02:09:57.179Z,25.12
2023-05-14T02:11:00.447Z,25.12
2023-05-14T02:12:03.748Z,25.12
2023-05-14T02:13:07.056Z,25.12
2023-05-14T02:14:10.339Z,25.12
2023-05-14T02:15:13.636Z,25.12
2023-05-14T02:16:16.929Z,25.06
2023-05-14T02:17:19.238Z,25.12
2023-05-14T02:18:22.518Z,25.06
2023-05-14T02:19:25.819Z,25.06
2023-05-14T02:20:29.102Z,25.12
2023-05-14T02:21:32.409Z,25.06
2023-05-14T02:22:35.699Z,25.12
2023-05-14T02:23:38.970Z,25.06
2023-05-14T02:24:42.286Z,25.06
2023-05-14T02:25:45.564Z,25.12
2023-05-14T02:26:48.871Z,25.06
2023-05-14T02:27:52.147Z,25.12
2023-05-14T02:28:55.450Z,25.06
2023-05-14T02:29:58.743Z,25.06
2023-05-14T02:31:01.044Z,25.12
2023-05-14T02:32:04.347Z,25.06
2023-05-14T02:33:07.635Z,25.06
2023-05-14T02:34:10.925Z,25.12
2023-05-14T02:35:14.214Z,25.06
2023-05-14T02:36:17.502Z,25.06
2023-05-14T02:37:20.817Z,25.06
2023-05-14T02:38:24.101Z,25.12
2023-05-14T02:39:27.387Z,25.06
2023-05-14T02:40:30.689Z,25.12
2023-05-14T02:41:33.969Z,25.06
2023-05-14T02:42:37.272Z,25.06
2023-05-14T02:43:40.589Z,25.06
2023-05-14T02:44:42.868Z,25.06
2023-05-14T02:45:46.172Z,25.06
2023-05-14T02:46:49.441Z,25
2023-05-14T02:47:53.303Z,25.06
2023-05-14T02:48:56.589Z,25.06
2023-05-14T02:49:59.894Z,25.06
2023-05-14T02:51:03.184Z,25.12
2023-05-14T02:52:06.479Z,25.06
2023-05-14T02:53:09.769Z,25.06
2023-05-14T02:54:13.062Z,25.06
2023-05-14T02:55:16.363Z,25.06
2023-05-14T02:56:19.643Z,25.06
2023-05-14T02:57:22.976Z,25.06
2023-05-14T02:58:25.248Z,25.06
2023-05-14T02:59:28.548Z,25.06
2023-05-14T03:00:31.836Z,25.12
2023-05-14T03:01:35.129Z,25.06
2023-05-14T03:02:38.429Z,25.06
2023-05-14T03:03:41.705Z,25.06
2023-05-14T03:04:45.002Z,25.06
2023-05-14T03:05:48.302Z,25.06
2023-05-14T03:06:51.593Z,25.12
2023-05-14T03:07:54.862Z,25.06
2023-05-14T03:08:58.169Z,25.12
2023-05-14T03:10:01.461Z,25
2023-05-14T03:11:04.740Z,25.06
2023-05-14T03:12:07.063Z,25.06
2023-05-14T03:13:10.363Z,25
2023-05-14T03:14:13.632Z,25.06
2023-05-14T03:15:16.943Z,25.06
2023-05-14T03:16:20.225Z,25
2023-05-14T03:17:23.530Z,25.06
2023-05-14T03:18:26.802Z,25.06
2023-05-14T03:19:30.115Z,25.06
2023-05-14T03:20:33.384Z,25.06
2023-05-14T03:21:36.679Z,25.06
2023-05-14T03:22:39.969Z,25.06
2023-05-14T03:23:43.259Z,25
2023-05-14T03:24:46.569Z,25.06
2023-05-14T03:25:48.869Z,25.06
2023-05-14T03:26:52.159Z,25.06
2023-05-14T03:27:55.454Z,25.06
2023-05-14T03:28:58.746Z,25
2023-05-14T03:30:02.036Z,25
2023-05-14T03:31:05.323Z,25
2023-05-14T03:32:08.623Z,25
2023-05-14T03:33:11.941Z,25
2023-05-14T03:34:15.222Z,25.06
2023-05-14T03:35:18.505Z,25.06
2023-05-14T03:36:21.780Z,25.06
2023-05-14T03:37:25.086Z,25
2023-05-14T03:38:28.375Z,25
2023-05-14T03:39:30.682Z,25
2023-05-14T03:40:33.961Z,25.06
2023-05-14T03:41:37.267Z,25.06
2023-05-14T03:43:43.841Z,25
2023-05-14T03:44:47.147Z,25
2023-05-14T03:45:50.518Z,25
2023-05-14T03:46:53.823Z,25.06
2023-05-14T03:47:57.112Z,25.06
2023-05-14T03:49:00.404Z,25
2023-05-14T03:50:03.687Z,25
2023-05-14T03:51:06.989Z,25.06
2023-05-14T03:52:10.298Z,25.06
2023-05-14T03:53:12.574Z,25
2023-05-14T03:54:15.878Z,25
2023-05-14T03:55:19.172Z,25
2023-05-14T03:56:22.445Z,25
2023-05-14T03:57:25.754Z,25
2023-05-14T03:58:29.046Z,25
2023-05-14T03:59:31.389Z,25.06
2023-05-14T04:00:34.634Z,25
2023-05-14T04:01:37.939Z,25
2023-05-14T04:02:41.220Z,25
2023-05-14T04:03:44.511Z,25
2023-05-14T04:04:47.828Z,25
2023-05-14T04:05:51.101Z,25.06
2023-05-14T04:06:54.406Z,25
2023-05-14T04:07:57.686Z,25.06
2023-05-14T04:09:00.984Z,25
2023-05-14T04:10:04.295Z,25
2023-05-14T04:11:07.570Z,25
2023-05-14T04:12:10.868Z,25
2023-05-14T04:13:13.174Z,25.06
2023-05-14T04:14:16.453Z,25
2023-05-14T04:15:19.744Z,25
2023-05-14T04:16:23.061Z,25
2023-05-14T04:17:26.326Z,25
2023-05-14T04:18:29.623Z,25
2023-05-14T04:19:32.911Z,25
2023-05-14T04:20:36.236Z,24.93
2023-05-14T04:21:39.504Z,25.06
2023-05-14T04:22:42.813Z,25
2023-05-14T04:23:46.074Z,25
2023-05-14T04:24:49.390Z,24.93
2023-05-14T04:25:52.684Z,25
2023-05-14T04:26:54.989Z,25
2023-05-14T04:27:58.273Z,25.06
2023-05-14T04:29:01.558Z,25
2023-05-14T04:30:04.850Z,25
2023-05-14T04:31:08.151Z,25
2023-05-14T04:32:11.422Z,25
2023-05-14T04:33:14.710Z,25
2023-05-14T04:34:18.025Z,25
2023-05-14T04:35:21.313Z,25
2023-05-14T04:36:24.606Z,25.06
2023-05-14T04:37:27.895Z,24.93
2023-05-14T04:38:31.196Z,25
2023-05-14T04:39:34.475Z,25
2023-05-14T04:40:36.792Z,25
2023-05-14T04:41:40.084Z,25
2023-05-14T04:42:43.371Z,25.06
2023-05-14T04:43:46.662Z,25.06
2023-05-14T04:44:49.968Z,25
2023-05-14T04:45:53.236Z,24.93
2023-05-14T04:46:56.940Z,24.93
2023-05-14T04:48:00.234Z,25
2023-05-14T04:49:03.518Z,25
2023-05-14T04:50:06.805Z,25
2023-05-14T04:51:10.092Z,24.93
2023-05-14T04:52:13.385Z,24.93
2023-05-14T04:53:16.662Z,24.93
2023-05-14T04:54:19.975Z,24.93
2023-05-14T04:55:22.299Z,24.93
2023-05-14T04:56:25.557Z,25
2023-05-14T04:57:28.862Z,25
2023-05-14T04:58:32.147Z,25
2023-05-14T04:59:35.457Z,24.93
2023-05-14T05:00:38.734Z,24.93
2023-05-14T05:01:42.030Z,24.93
2023-05-14T05:02:45.312Z,24.93
2023-05-14T05:03:48.624Z,24.93
2023-05-14T05:04:51.901Z,25
2023-05-14T05:05:55.218Z,24.93
2023-05-14T05:06:58.501Z,25
2023-05-14T05:08:01.787Z,25
2023-05-14T05:09:04.107Z,25
2023-05-14T05:10:07.393Z,24.93
2023-05-14T05:11:10.697Z,25
2023-05-14T05:12:13.980Z,25
2023-05-14T05:13:17.292Z,25
2023-05-14T05:14:20.556Z,25
2023-05-14T05:15:23.866Z,25
2023-05-14T05:16:27.159Z,25
2023-05-14T05:17:30.452Z,25
2023-05-14T05:18:33.748Z,24.93
2023-05-14T05:19:37.021Z,25
2023-05-14T05:20:40.309Z,25
2023-05-14T05:21:43.594Z,25
2023-05-14T05:22:45.918Z,25
2023-05-14T05:23:49.209Z,25
2023-05-14T05:24:52.495Z,25
2023-05-14T05:25:55.804Z,24.93
2023-05-14T05:26:59.092Z,25
2023-05-14T05:28:02.376Z,24.93
2023-05-14T05:29:05.674Z,24.93
2023-05-14T05:30:08.971Z,24.93
2023-05-14T05:31:12.267Z,24.93
2023-05-14T05:32:15.540Z,24.93
2023-05-14T05:33:18.842Z,24.93
2023-05-14T05:34:22.137Z,24.93
2023-05-14T05:35:25.540Z,25
2023-05-14T05:36:27.736Z,24.93
2023-05-14T05:37:31.025Z,24.93
2023-05-14T05:38:34.321Z,24.93
2023-05-14T05:39:37.626Z,24.93
2023-05-14T05:40:40.902Z,24.93
2023-05-14T05:41:44.194Z,25
2023-05-14T05:42:47.474Z,25
2023-05-14T05:43:50.778Z,25
2023-05-14T05:44:54.288Z,25
2023-05-14T05:45:57.562Z,25
2023-05-14T05:47:00.863Z,25
2023-05-14T05:48:04.128Z,25
2023-05-14T05:49:07.479Z,25
2023-05-14T05:50:09.744Z,25
2023-05-14T05:51:13.023Z,25
2023-05-14T05:52:16.317Z,25
2023-05-14T05:53:19.619Z,25
2023-05-14T05:54:22.906Z,25
2023-05-14T05:55:26.197Z,25
2023-05-14T05:56:29.477Z,25
2023-05-14T05:57:32.785Z,25
2023-05-14T05:58:36.076Z,24.93
2023-05-14T05:59:39.385Z,25
2023-05-14T06:00:42.701Z,25
2023-05-14T06:01:45.947Z,24.93
2023-05-14T06:02:49.232Z,25
2023-05-14T06:03:51.556Z,25.06
2023-05-14T06:04:54.843Z,25
2023-05-14T06:05:58.132Z,25
2023-05-14T06:07:01.410Z,25
2023-05-14T06:08:04.740Z,25
2023-05-14T06:09:08.001Z,25
2023-05-14T06:10:11.315Z,25.06
2023-05-14T06:11:14.586Z,25
2023-05-14T06:12:17.896Z,25.06
2023-05-14T06:13:21.210Z,25.06
2023-05-14T06:14:24.468Z,25.06
2023-05-14T06:15:27.759Z,25
2023-05-14T06:16:31.050Z,25
2023-05-14T06:17:33.357Z,25.06
2023-05-14T06:18:36.654Z,25
2023-05-14T06:19:39.959Z,25
2023-05-14T06:20:43.252Z,25.06
2023-05-14T06:21:46.534Z,25
2023-05-14T06:22:49.818Z,25.12
2023-05-14T06:23:53.120Z,25
2023-05-14T06:24:56.413Z,25
2023-05-14T06:25:59.724Z,25
2023-05-14T06:27:02.979Z,25
2023-05-14T06:28:06.274Z,25.06
2023-05-14T06:29:09.582Z,25.06
2023-05-14T06:30:12.866Z,25.06
2023-05-14T06:31:15.184Z,25.06
2023-05-14T06:32:18.456Z,25.06
2023-05-14T06:33:21.745Z,25.06
2023-05-14T06:34:25.044Z,25
2023-05-14T06:35:28.338Z,25
2023-05-14T06:36:31.635Z,25
2023-05-14T06:37:34.939Z,25
2023-05-14T06:38:38.209Z,25
2023-05-14T06:39:41.501Z,25.06
2023-05-14T06:40:44.785Z,25.06
2023-05-14T06:41:48.079Z,25.06
2023-05-14T06:42:51.584Z,25.06
2023-05-14T06:43:54.879Z,25.06
2023-05-14T06:44:57.187Z,25.06
2023-05-14T06:46:00.486Z,25.06
2023-05-14T06:47:03.776Z,25.06
2023-05-14T06:48:07.060Z,25.06
2023-05-14T06:49:10.357Z,25.06
2023-05-14T06:50:13.707Z,25
2023-05-14T06:51:16.941Z,25.06
2023-05-14T06:52:20.245Z,25.06
2023-05-14T06:53:23.526Z,25
2023-05-14T06:54:26.829Z,25.06
2023-05-14T06:55:30.114Z,25
2023-05-14T06:56:33.420Z,25
2023-05-14T06:57:36.702Z,25.06
2023-05-14T06:58:38.996Z,25.06
2023-05-14T06:59:42.302Z,25.06
2023-05-14T07:00:45.582Z,25.06
2023-05-14T07:01:48.884Z,25.06
2023-05-14T07:02:52.175Z,25
2023-05-14T07:03:55.458Z,25.06
2023-05-14T07:04:58.754Z,25.06
2023-05-14T07:06:02.051Z,25.12
2023-05-14T07:07:05.332Z,25.06
2023-05-14T07:08:08.647Z,25.12
2023-05-14T07:09:11.937Z,25.12
2023-05-14T07:10:15.869Z,25.12
2023-05-14T07:11:18.503Z,25.06
2023-05-14T07:12:20.825Z,25.06
2023-05-14T07:13:24.122Z,25.06
2023-05-14T07:14:27.397Z,25.12
2023-05-14T07:15:30.760Z,25.12
2023-05-14T07:16:33.975Z,25.06
2023-05-14T07:17:37.273Z,25.06
2023-05-14T07:18:40.593Z,25.06
2023-05-14T07:19:43.855Z,25
2023-05-14T07:20:47.153Z,25.06
2023-05-14T07:21:50.434Z,25.06
2023-05-14T07:22:53.738Z,25.06
2023-05-14T07:23:57.018Z,25.12
2023-05-14T07:25:00.360Z,25.12
2023-05-14T07:26:02.626Z,25.12
2023-05-14T07:27:05.904Z,25.12
2023-05-14T07:28:09.197Z,25.12
2023-05-14T07:29:12.504Z,25.12
2023-05-14T07:30:15.851Z,25.12
2023-05-14T07:31:18.112Z,25.12
2023-05-14T07:32:21.381Z,25.06
2023-05-14T07:33:24.687Z,25.12
2023-05-14T07:34:28.018Z,25.06
2023-05-14T07:35:31.277Z,25.12
2023-05-14T07:36:34.554Z,25.12
2023-05-14T07:37:37.862Z,25.12
2023-05-14T07:38:41.140Z,25.12
2023-05-14T07:39:44.458Z,25.06
2023-05-14T07:40:47.725Z,25.12
2023-05-14T07:41:51.035Z,25.12
2023-05-14T07:42:54.306Z,25.06
2023-05-14T07:43:58.029Z,25.12
2023-05-14T07:45:00.335Z,25.06
2023-05-14T07:46:03.616Z,25.06
2023-05-14T07:47:06.920Z,25.06
2023-05-14T07:48:10.210Z,25.12
2023-05-14T07:49:13.499Z,25.06
2023-05-14T07:50:16.801Z,25.06
2023-05-14T07:51:20.100Z,25
2023-05-14T07:52:23.402Z,25.06
2023-05-14T07:53:26.687Z,25.06
2023-05-14T07:54:29.964Z,25.06
2023-05-14T07:55:33.255Z,25.06
2023-05-14T07:56:36.548Z,25.06
2023-05-14T07:57:39.838Z,25.12
2023-05-14T07:58:42.145Z,25.06
2023-05-14T07:59:45.448Z,25.06
2023-05-14T08:00:48.738Z,25
2023-05-14T08:01:52.110Z,25
2023-05-14T08:02:55.421Z,25
2023-05-14T08:03:58.701Z,25
2023-05-14T08:05:01.994Z,25
2023-05-14T08:06:05.294Z,25
2023-05-14T08:07:08.576Z,25
2023-05-14T08:08:11.867Z,25
2023-05-14T08:09:15.166Z,25
2023-05-14T08:10:18.500Z,25
2023-05-14T08:11:21.743Z,25
2023-05-14T08:12:24.067Z,25.06
2023-05-14T08:13:27.345Z,25
2023-05-14T08:14:30.655Z,25.06
2023-05-14T08:15:33.930Z,25.06
2023-05-14T08:16:37.223Z,25
2023-05-14T08:17:40.530Z,25.06
2023-05-14T08:18:43.807Z,25.06
2023-05-14T08:19:47.110Z,25
2023-05-14T08:20:50.391Z,25
2023-05-14T08:21:53.777Z,25.06
2023-05-14T08:22:56.995Z,25
2023-05-14T08:24:00.266Z,25
2023-05-14T08:25:03.558Z,25.06
2023-05-14T08:26:05.872Z,25.06
2023-05-14T08:27:09.201Z,25.06
2023-05-14T08:28:12.481Z,25.06
2023-05-14T08:29:15.742Z,25.06
2023-05-14T08:30:19.077Z,25
2023-05-14T08:31:22.416Z,25.06
2023-05-14T08:32:25.755Z,25
2023-05-14T08:33:28.905Z,25.06
2023-05-14T08:34:32.199Z,25
2023-05-14T08:36:38.820Z,25.06
2023-05-14T08:37:42.096Z,25
2023-05-14T08:38:45.401Z,25.06
2023-05-14T08:39:47.689Z,25.06
2023-05-14T08:40:50.963Z,25.06
2023-05-14T08:41:54.319Z,25.06
2023-05-14T08:42:57.586Z,24.93
2023-05-14T08:44:00.845Z,24.87
2023-05-14T08:45:04.202Z,24.93
2023-05-14T08:46:07.448Z,24.93
2023-05-14T08:47:10.762Z,24.87
2023-05-14T08:48:14.013Z,24.87
2023-05-14T08:49:17.308Z,24.93
2023-05-14T08:50:20.601Z,24.87
2023-05-14T08:51:23.900Z,24.87
2023-05-14T08:52:27.179Z,24.87
2023-05-14T08:53:29.595Z,24.87
2023-05-14T08:54:32.781Z,24.87
2023-05-14T08:55:36.093Z,24.87
2023-05-14T08:56:39.368Z,24.93
2023-05-14T08:57:42.665Z,24.87
2023-05-14T08:58:45.967Z,24.87
2023-05-14T08:59:49.234Z,24.87
2023-05-14T09:00:52.528Z,24.93
2023-05-14T09:01:55.832Z,24.87
2023-05-14T09:02:59.123Z,24.87
2023-05-14T09:04:02.429Z,24.81
2023-05-14T09:05:05.717Z,24.87
2023-05-14T09:06:08.981Z,24.87
2023-05-14T09:07:11.313Z,24.87
2023-05-14T09:08:14.592Z,24.87
2023-05-14T09:09:17.899Z,24.87
2023-05-14T09:10:21.173Z,24.87
2023-05-14T09:11:24.458Z,24.87
2023-05-14T09:12:27.757Z,24.87
2023-05-14T09:13:31.140Z,24.87
2023-05-14T09:14:34.342Z,24.81
2023-05-14T09:15:37.644Z,24.81
2023-05-14T09:16:40.928Z,24.81
2023-05-14T09:17:44.219Z,24.87
2023-05-14T09:18:47.535Z,24.81
2023-05-14T09:19:50.814Z,24.87
2023-05-14T09:20:53.113Z,24.81
2023-05-14T09:21:56.386Z,24.87
2023-05-14T09:22:59.682Z,24.81
2023-05-14T09:24:02.989Z,24.87
2023-05-14T09:25:06.308Z,24.87
2023-05-14T09:26:09.590Z,24.81
2023-05-14T09:27:12.871Z,24.87
2023-05-14T09:28:16.151Z,24.81
2023-05-14T09:29:19.446Z,24.93
2023-05-14T09:30:22.733Z,24.93
2023-05-14T09:31:26.032Z,24.87
2023-05-14T09:32:29.325Z,24.87
2023-05-14T09:33:32.622Z,24.87
2023-05-14T09:34:34.943Z,24.81
2023-05-14T09:35:38.219Z,24.87
2023-05-14T09:36:41.507Z,24.87
2023-05-14T09:37:44.800Z,24.87
2023-05-14T09:38:48.112Z,24.81
2023-05-14T09:39:51.378Z,24.87
2023-05-14T09:40:54.676Z,24.87
2023-05-14T09:41:57.976Z,24.87
2023-05-14T09:43:01.263Z,24.87
2023-05-14T09:44:04.555Z,24.87
2023-05-14T09:45:07.951Z,24.87
2023-05-14T09:46:11.276Z,24.81
2023-05-14T09:47:14.428Z,24.87
2023-05-14T09:48:16.732Z,24.87
2023-05-14T09:49:20.048Z,24.87
2023-05-14T09:50:23.435Z,24.93
2023-05-14T09:51:26.591Z,24.87
2023-05-14T09:52:29.922Z,24.87
2023-05-14T09:53:33.181Z,24.87
2023-05-14T09:54:36.529Z,24.87
2023-05-14T09:55:39.787Z,24.81
2023-05-14T09:57:46.402Z,24.87
2023-05-14T09:58:49.718Z,24.93
2023-05-14T09:59:52.950Z,24.87
2023-05-14T10:00:56.274Z,24.93
2023-05-14T10:01:58.572Z,24.87
2023-05-14T10:03:01.838Z,24.93
2023-05-14T10:04:05.122Z,24.93
2023-05-14T10:05:08.453Z,24.93
2023-05-14T10:06:11.714Z,24.87
2023-05-14T10:07:15.000Z,24.93
2023-05-14T10:08:18.282Z,24.87
2023-05-14T10:09:21.597Z,24.93
2023-05-14T10:10:24.946Z,24.87
2023-05-14T10:11:28.186Z,24.87
2023-05-14T10:12:31.479Z,24.87
2023-05-14T10:13:34.767Z,24.87
2023-05-14T10:14:38.119Z,24.87
2023-05-14T10:15:40.440Z,24.87
2023-05-14T10:16:43.646Z,24.93
2023-05-14T10:17:46.948Z,24.87
2023-05-14T10:18:50.252Z,24.87
2023-05-14T10:19:53.531Z,24.87
2023-05-14T10:20:56.824Z,24.87
2023-05-14T10:22:00.130Z,24.93
2023-05-14T10:23:03.389Z,24.93
2023-05-14T10:24:06.705Z,24.87
2023-05-14T10:25:09.969Z,24.87
2023-05-14T10:26:13.303Z,24.93
2023-05-14T10:27:16.588Z,24.87
2023-05-14T10:28:19.910Z,24.87
2023-05-14T10:29:22.169Z,24.87
2023-05-14T10:30:25.445Z,24.87
2023-05-14T10:31:28.743Z,24.93
2023-05-14T10:32:32.030Z,24.87
2023-05-14T10:33:35.347Z,24.93
2023-05-14T10:34:38.640Z,24.87
2023-05-14T10:35:41.917Z,24.93
2023-05-14T10:36:45.221Z,24.93
2023-05-14T10:37:48.506Z,24.87
2023-05-14T10:38:51.794Z,24.93
2023-05-14T10:39:55.101Z,24.93
2023-05-14T10:40:58.378Z,24.87
2023-05-14T10:42:01.682Z,24.93
2023-05-14T10:43:04.014Z,24.93
2023-05-14T10:44:07.281Z,24.93
2023-05-14T10:45:10.583Z,24.93
2023-05-14T10:46:13.873Z,24.87
2023-05-14T10:47:17.154Z,24.87
2023-05-14T10:48:20.430Z,24.87
2023-05-14T10:49:23.742Z,24.87
2023-05-14T10:50:27.130Z,24.87
2023-05-14T10:51:30.314Z,24.87
2023-05-14T10:52:33.648Z,24.87
2023-05-14T10:53:36.915Z,24.93
2023-05-14T10:54:40.218Z,24.93
2023-05-14T10:55:43.524Z,24.87
2023-05-14T10:56:45.794Z,24.87
2023-05-14T10:57:49.087Z,24.87
2023-05-14T10:58:52.433Z,24.87
2023-05-14T10:59:55.717Z,24.87
2023-05-14T11:00:59.311Z,24.93
2023-05-14T11:02:02.593Z,24.87
2023-05-14T11:03:04.976Z,24.93
2023-05-14T11:04:08.246Z,24.93
2023-05-14T11:05:11.549Z,24.93
2023-05-14T11:06:14.785Z,24.93
2023-05-14T11:07:18.071Z,24.87
2023-05-14T11:08:21.353Z,24.87
2023-05-14T11:09:24.740Z,24.87
2023-05-14T11:10:28.035Z,24.87
2023-05-14T11:11:31.236Z,24.87
2023-05-14T11:12:34.656Z,24.87
2023-05-14T11:13:37.824Z,24.87
2023-05-14T11:14:41.118Z,24.93
2023-05-14T11:15:44.450Z,24.87
2023-05-14T11:16:46.737Z,24.87
2023-05-14T11:17:50.013Z,24.87
2023-05-14T11:18:53.321Z,24.87
2023-05-14T11:19:56.625Z,24.81
2023-05-14T11:20:59.984Z,24.87
2023-05-14T11:22:03.210Z,24.87
2023-05-14T11:23:06.493Z,24.81
2023-05-14T11:24:09.789Z,24.87
2023-05-14T11:25:13.069Z,24.93
2023-05-14T11:26:16.376Z,24.87
2023-05-14T11:27:19.697Z,24.81
2023-05-14T11:28:22.959Z,24.87
2023-05-14T11:29:26.261Z,24.81
2023-05-14T11:30:28.594Z,24.87
2023-05-14T11:31:31.862Z,24.87
2023-05-14T11:32:35.129Z,24.87
2023-05-14T11:33:38.432Z,24.81
2023-05-14T11:34:41.723Z,24.87
2023-05-14T11:35:45.026Z,24.87
2023-05-14T11:36:48.311Z,24.81
2023-05-14T11:37:51.598Z,24.87
2023-05-14T11:38:54.907Z,24.87
2023-05-14T11:39:58.185Z,24.87
2023-05-14T11:41:01.485Z,24.87
2023-05-14T11:42:04.753Z,24.87
2023-05-14T11:43:08.042Z,24.87
2023-05-14T11:44:10.369Z,24.87
2023-05-14T11:45:13.710Z,24.87
2023-05-14T11:46:16.949Z,24.87
2023-05-14T11:47:20.232Z,24.81
2023-05-14T11:48:23.531Z,24.87
2023-05-14T11:49:26.811Z,24.87
2023-05-14T11:50:30.127Z,24.87
2023-05-14T11:51:33.413Z,24.81
2023-05-14T11:52:36.707Z,24.81
2023-05-14T11:53:39.988Z,24.87
2023-05-14T11:54:43.292Z,24.81
2023-05-14T11:55:46.570Z,24.81
2023-05-14T11:56:49.853Z,24.87
2023-05-14T11:57:52.351Z,24.87
2023-05-14T11:58:55.471Z,24.87
2023-05-14T11:59:58.773Z,24.81
2023-05-14T12:01:02.046Z,24.81
2023-05-14T12:02:05.353Z,24.87
2023-05-14T12:03:08.627Z,24.87
2023-05-14T12:04:11.965Z,24.87
2023-05-14T12:05:15.227Z,24.81
2023-05-14T12:06:18.530Z,24.87
2023-05-14T12:07:21.807Z,24.81
2023-05-14T12:08:25.110Z,24.81
2023-05-14T12:09:28.390Z,24.87
2023-05-14T12:10:31.743Z,24.81
2023-05-14T12:11:33.988Z,24.87
2023-05-14T12:12:37.329Z,24.87
2023-05-14T12:13:40.578Z,24.87
2023-05-14T12:14:43.854Z,24.87
2023-05-14T12:15:47.161Z,24.81
2023-05-14T12:16:50.441Z,24.81
2023-05-14T12:17:53.742Z,24.87
2023-05-14T12:18:57.032Z,24.81
2023-05-14T12:20:00.364Z,24.87
2023-05-14T12:21:03.617Z,24.87
2023-05-14T12:22:06.925Z,24.87
2023-05-14T12:23:10.208Z,24.87
2023-05-14T12:24:13.507Z,24.87
2023-05-14T12:25:15.796Z,24.93
2023-05-14T12:26:19.207Z,24.87
2023-05-14T12:27:22.386Z,24.87
2023-05-14T12:28:25.692Z,24.87
2023-05-14T12:29:29.026Z,24.87
2023-05-14T12:30:32.270Z,24.93
2023-05-14T12:31:35.622Z,24.93
2023-05-14T12:32:38.838Z,24.87
2023-05-14T12:33:42.317Z,24.87
2023-05-14T12:34:45.443Z,24.87
2023-05-14T12:35:48.770Z,24.87
2023-05-14T12:36:52.030Z,24.93
2023-05-14T12:37:55.367Z,24.93
2023-05-14T12:38:57.667Z,24.87
2023-05-14T12:40:00.961Z,24.87
2023-05-14T12:41:04.193Z,24.93
2023-05-14T12:42:07.516Z,24.93
2023-05-14T12:43:10.789Z,24.87
2023-05-14T12:44:14.082Z,24.93
2023-05-14T12:45:17.368Z,24.93
2023-05-14T12:46:20.657Z,24.93
2023-05-14T12:47:23.949Z,24.87
2023-05-14T12:48:27.269Z,24.93
2023-05-14T12:49:30.529Z,24.93
2023-05-14T12:50:33.820Z,24.93
2023-05-14T12:51:37.162Z,24.93
2023-05-14T12:52:39.494Z,25
2023-05-14T12:53:42.735Z,24.93
2023-05-14T12:54:46.023Z,24.93
2023-05-14T12:55:49.329Z,24.93
2023-05-14T12:56:52.594Z,24.93
2023-05-14T12:57:55.880Z,24.93
2023-05-14T12:58:59.192Z,24.93
2023-05-14T13:00:02.478Z,25
2023-05-14T13:01:05.778Z,25
2023-05-14T13:02:09.073Z,25
2023-05-14T13:03:12.351Z,24.93
2023-05-14T13:04:15.641Z,25
2023-05-14T13:05:18.915Z,24.93
2023-05-14T13:06:21.229Z,24.93
2023-05-14T13:07:24.566Z,24.93
2023-05-14T13:08:27.829Z,24.93
2023-05-14T13:09:31.264Z,24.93
2023-05-14T13:10:34.419Z,24.93
2023-05-14T13:11:37.700Z,24.93
2023-05-14T13:12:41.039Z,24.93
2023-05-14T13:13:44.344Z,25
2023-05-14T13:14:47.589Z,25
2023-05-14T13:15:50.915Z,25
2023-05-14T13:16:54.143Z,25
2023-05-14T13:17:57.451Z,24.93
2023-05-14T13:19:00.751Z,25
2023-05-14T13:20:03.048Z,24.93
2023-05-14T13:21:06.344Z,24.93
2023-05-14T13:22:09.615Z,25
2023-05-14T13:23:12.967Z,25
2023-05-14T13:24:16.205Z,25
2023-05-14T13:25:19.511Z,25
2023-05-14T13:26:22.794Z,25
2023-05-14T13:27:26.091Z,24.93
2023-05-14T13:28:29.404Z,25
2023-05-14T13:29:32.666Z,25
2023-05-14T13:30:35.972Z,25
2023-05-14T13:31:39.266Z,25
2023-05-14T13:32:42.566Z,25
2023-05-14T13:33:44.860Z,25
2023-05-14T13:34:48.172Z,25.06
2023-05-14T13:35:51.442Z,25
2023-05-14T13:36:54.756Z,25
2023-05-14T13:37:58.039Z,25
2023-05-14T13:39:01.308Z,24.93
2023-05-14T13:40:04.601Z,25
2023-05-14T13:41:07.905Z,25
2023-05-14T13:42:11.203Z,25
2023-05-14T13:43:14.527Z,24.93
2023-05-14T13:44:17.866Z,25
2023-05-14T13:45:21.059Z,25
2023-05-14T13:46:24.359Z,24.93
2023-05-14T13:47:26.904Z,25
2023-05-14T13:48:29.979Z,25
2023-05-14T13:49:33.350Z,24.93
2023-05-14T13:50:36.543Z,24.93
2023-05-14T13:51:40.001Z,24.93
2023-05-14T13:52:43.266Z,24.93
2023-05-14T13:53:46.566Z,24.93
2023-05-14T13:54:49.777Z,24.93
2023-05-14T13:55:53.177Z,25
2023-05-14T13:56:56.441Z,25
2023-05-14T13:57:59.709Z,25